sensor_id;sensor_type;location;lat;lon;timestamp;P1;durP1;ratioP1;P2;durP2;ratioP2
58196;SDS011;43999;51.660;5.616;2023-03-31T00:00:08;9.65;;;4.70;;
58196;SDS011;43999;51.660;5.616;2023-03-31T00:02:38;6.85;;;4.05;;
58196;SDS011;43999;51.660;5.616;2023-03-31T00:05:09;15.13;;;5.25;;
58196;SDS011;43999;51.660;5.616;2023-03-31T00:07:37;10.32;;;5.38;;
58196;SDS011;43999;51.660;5.616;2023-03-31T00:10:05;8.35;;;4.32;;
58196;SDS011;43999;51.660;5.616;2023-03-31T00:12:43;11.45;;;4.00;;
58196;SDS011;43999;51.660;5.616;2023-03-31T00:15:12;8.00;;;4.43;;
58196;SDS011;43999;51.660;5.616;2023-03-31T00:17:42;7.85;;;4.35;;
58196;SDS011;43999;51.660;5.616;2023-03-31T00:20:12;9.02;;;3.85;;
58196;SDS011;43999;51.660;5.616;2023-03-31T00:22:41;7.57;;;3.60;;
58196;SDS011;43999;51.660;5.616;2023-03-31T00:25:14;7.82;;;4.00;;
58196;SDS011;43999;51.660;5.616;2023-03-31T00:27:46;9.57;;;5.72;;
58196;SDS011;43999;51.660;5.616;2023-03-31T00:30:16;9.75;;;4.05;;
58196;SDS011;43999;51.660;5.616;2023-03-31T00:32:45;8.00;;;5.22;;
58196;SDS011;43999;51.660;5.616;2023-03-31T00:35:13;6.47;;;3.78;;
58196;SDS011;43999;51.660;5.616;2023-03-31T00:37:43;10.45;;;4.82;;
58196;SDS011;43999;51.660;5.616;2023-03-31T00:40:12;9.75;;;3.67;;
58196;SDS011;43999;51.660;5.616;2023-03-31T00:42:40;6.63;;;4.00;;
58196;SDS011;43999;51.660;5.616;2023-03-31T00:50:48;8.13;;;3.75;;
58196;SDS011;43999;51.660;5.616;2023-03-31T00:53:23;7.55;;;3.22;;
58196;SDS011;43999;51.660;5.616;2023-03-31T00:56:08;9.90;;;3.67;;
58196;SDS011;43999;51.660;5.616;2023-03-31T00:58:44;7.32;;;3.47;;
58196;SDS011;43999;51.660;5.616;2023-03-31T01:01:13;6.22;;;3.35;;
58196;SDS011;43999;51.660;5.616;2023-03-31T01:03:51;10.52;;;4.03;;
58196;SDS011;43999;51.660;5.616;2023-03-31T01:06:23;6.65;;;3.38;;
58196;SDS011;43999;51.660;5.616;2023-03-31T01:08:52;10.38;;;3.67;;
58196;SDS011;43999;51.660;5.616;2023-03-31T01:11:26;8.40;;;3.70;;
58196;SDS011;43999;51.660;5.616;2023-03-31T01:13:58;9.80;;;4.28;;
58196;SDS011;43999;51.660;5.616;2023-03-31T01:16:26;6.22;;;4.00;;
58196;SDS011;43999;51.660;5.616;2023-03-31T01:18:54;8.75;;;3.58;;
58196;SDS011;43999;51.660;5.616;2023-03-31T01:25:19;7.88;;;3.53;;
58196;SDS011;43999;51.660;5.616;2023-03-31T01:41:52;11.88;;;2.97;;
58196;SDS011;43999;51.660;5.616;2023-03-31T01:45:01;6.85;;;3.03;;
58196;SDS011;43999;51.660;5.616;2023-03-31T01:51:34;8.55;;;3.38;;
58196;SDS011;43999;51.660;5.616;2023-03-31T01:57:53;7.65;;;4.13;;
58196;SDS011;43999;51.660;5.616;2023-03-31T02:00:32;8.70;;;3.30;;
58196;SDS011;43999;51.660;5.616;2023-03-31T02:03:21;6.80;;;3.65;;
58196;SDS011;43999;51.660;5.616;2023-03-31T02:06:05;11.60;;;3.67;;
58196;SDS011;43999;51.660;5.616;2023-03-31T02:08:53;9.90;;;3.88;;
58196;SDS011;43999;51.660;5.616;2023-03-31T02:11:35;10.40;;;4.65;;
58196;SDS011;43999;51.660;5.616;2023-03-31T02:14:11;11.85;;;4.65;;
58196;SDS011;43999;51.660;5.616;2023-03-31T02:16:49;12.73;;;4.55;;
58196;SDS011;43999;51.660;5.616;2023-03-31T02:19:25;7.03;;;3.42;;
58196;SDS011;43999;51.660;5.616;2023-03-31T02:22:07;9.68;;;4.78;;
58196;SDS011;43999;51.660;5.616;2023-03-31T02:24:38;8.70;;;3.35;;
58196;SDS011;43999;51.660;5.616;2023-03-31T02:27:30;10.20;;;3.85;;
58196;SDS011;43999;51.660;5.616;2023-03-31T02:30:12;8.15;;;3.90;;
58196;SDS011;43999;51.660;5.616;2023-03-31T02:32:41;8.07;;;3.95;;
58196;SDS011;43999;51.660;5.616;2023-03-31T02:35:15;6.63;;;3.83;;
58196;SDS011;43999;51.660;5.616;2023-03-31T02:37:50;8.50;;;3.60;;
58196;SDS011;43999;51.660;5.616;2023-03-31T02:40:20;8.15;;;4.03;;
58196;SDS011;43999;51.660;5.616;2023-03-31T02:42:53;11.43;;;4.25;;
58196;SDS011;43999;51.660;5.616;2023-03-31T02:45:42;10.73;;;4.47;;
58196;SDS011;43999;51.660;5.616;2023-03-31T02:48:20;8.13;;;4.18;;
58196;SDS011;43999;51.660;5.616;2023-03-31T02:57:23;11.63;;;4.82;;
58196;SDS011;43999;51.660;5.616;2023-03-31T03:04:04;13.95;;;5.78;;
58196;SDS011;43999;51.660;5.616;2023-03-31T03:07:18;12.13;;;5.50;;
58196;SDS011;43999;51.660;5.616;2023-03-31T03:16:22;11.67;;;5.27;;
58196;SDS011;43999;51.660;5.616;2023-03-31T03:19:07;9.07;;;4.03;;
58196;SDS011;43999;51.660;5.616;2023-03-31T03:21:43;10.57;;;4.37;;
58196;SDS011;43999;51.660;5.616;2023-03-31T03:24:14;18.52;;;6.22;;
58196;SDS011;43999;51.660;5.616;2023-03-31T03:26:48;14.38;;;5.13;;
58196;SDS011;43999;51.660;5.616;2023-03-31T03:29:20;14.25;;;5.13;;
58196;SDS011;43999;51.660;5.616;2023-03-31T03:31:48;10.50;;;4.88;;
58196;SDS011;43999;51.660;5.616;2023-03-31T03:34:16;13.10;;;4.80;;
58196;SDS011;43999;51.660;5.616;2023-03-31T03:36:46;12.45;;;4.35;;
58196;SDS011;43999;51.660;5.616;2023-03-31T03:39:17;16.95;;;5.25;;
58196;SDS011;43999;51.660;5.616;2023-03-31T03:41:46;16.67;;;5.78;;
58196;SDS011;43999;51.660;5.616;2023-03-31T03:44:14;11.02;;;5.13;;
58196;SDS011;43999;51.660;5.616;2023-03-31T03:46:43;14.07;;;5.43;;
58196;SDS011;43999;51.660;5.616;2023-03-31T03:49:11;10.95;;;4.97;;
58196;SDS011;43999;51.660;5.616;2023-03-31T03:51:39;14.80;;;5.22;;
58196;SDS011;43999;51.660;5.616;2023-03-31T03:54:08;13.35;;;5.72;;
58196;SDS011;43999;51.660;5.616;2023-03-31T03:56:36;10.25;;;4.97;;
58196;SDS011;43999;51.660;5.616;2023-03-31T03:59:03;9.95;;;4.20;;
58196;SDS011;43999;51.660;5.616;2023-03-31T04:01:31;14.05;;;5.47;;
58196;SDS011;43999;51.660;5.616;2023-03-31T04:03:59;9.93;;;5.45;;
58196;SDS011;43999;51.660;5.616;2023-03-31T04:06:27;10.27;;;3.80;;
58196;SDS011;43999;51.660;5.616;2023-03-31T04:08:56;13.35;;;5.40;;
58196;SDS011;43999;51.660;5.616;2023-03-31T04:11:25;15.00;;;4.43;;
58196;SDS011;43999;51.660;5.616;2023-03-31T04:13:54;10.27;;;4.90;;
58196;SDS011;43999;51.660;5.616;2023-03-31T04:16:24;21.25;;;5.03;;
58196;SDS011;43999;51.660;5.616;2023-03-31T04:18:52;9.38;;;4.13;;
58196;SDS011;43999;51.660;5.616;2023-03-31T04:21:22;13.25;;;5.50;;
58196;SDS011;43999;51.660;5.616;2023-03-31T04:23:52;13.10;;;4.75;;
58196;SDS011;43999;51.660;5.616;2023-03-31T04:26:29;12.48;;;4.25;;
58196;SDS011;43999;51.660;5.616;2023-03-31T04:29:13;8.15;;;3.80;;
58196;SDS011;43999;51.660;5.616;2023-03-31T04:31:43;12.90;;;4.65;;
58196;SDS011;43999;51.660;5.616;2023-03-31T04:34:12;13.02;;;4.90;;
58196;SDS011;43999;51.660;5.616;2023-03-31T04:36:42;8.75;;;4.95;;
58196;SDS011;43999;51.660;5.616;2023-03-31T04:39:15;18.20;;;7.13;;
58196;SDS011;43999;51.660;5.616;2023-03-31T04:41:53;12.70;;;4.57;;
58196;SDS011;43999;51.660;5.616;2023-03-31T04:44:20;10.95;;;4.28;;
58196;SDS011;43999;51.660;5.616;2023-03-31T04:46:54;11.82;;;4.10;;
58196;SDS011;43999;51.660;5.616;2023-03-31T04:49:22;8.60;;;3.60;;
58196;SDS011;43999;51.660;5.616;2023-03-31T04:51:50;11.95;;;4.95;;
58196;SDS011;43999;51.660;5.616;2023-03-31T04:54:18;7.97;;;4.78;;
58196;SDS011;43999;51.660;5.616;2023-03-31T04:56:45;10.93;;;5.15;;
58196;SDS011;43999;51.660;5.616;2023-03-31T04:59:13;8.77;;;5.13;;
58196;SDS011;43999;51.660;5.616;2023-03-31T05:01:41;9.40;;;4.28;;
58196;SDS011;43999;51.660;5.616;2023-03-31T05:04:10;11.77;;;4.75;;
58196;SDS011;43999;51.660;5.616;2023-03-31T05:06:38;11.60;;;3.78;;
58196;SDS011;43999;51.660;5.616;2023-03-31T05:09:07;8.85;;;4.53;;
58196;SDS011;43999;51.660;5.616;2023-03-31T05:11:39;10.60;;;3.95;;
58196;SDS011;43999;51.660;5.616;2023-03-31T05:14:07;7.75;;;4.47;;
58196;SDS011;43999;51.660;5.616;2023-03-31T05:16:35;6.25;;;3.88;;
58196;SDS011;43999;51.660;5.616;2023-03-31T05:19:05;14.98;;;4.90;;
58196;SDS011;43999;51.660;5.616;2023-03-31T05:21:33;19.63;;;4.85;;
58196;SDS011;43999;51.660;5.616;2023-03-31T05:24:04;9.88;;;4.55;;
58196;SDS011;43999;51.660;5.616;2023-03-31T05:26:32;10.43;;;4.28;;
58196;SDS011;43999;51.660;5.616;2023-03-31T05:29:01;13.38;;;6.20;;
58196;SDS011;43999;51.660;5.616;2023-03-31T05:31:29;12.65;;;4.47;;
58196;SDS011;43999;51.660;5.616;2023-03-31T05:33:58;11.88;;;4.22;;
58196;SDS011;43999;51.660;5.616;2023-03-31T05:36:26;6.32;;;3.22;;
58196;SDS011;43999;51.660;5.616;2023-03-31T05:38:55;8.25;;;3.88;;
58196;SDS011;43999;51.660;5.616;2023-03-31T05:41:24;10.13;;;3.95;;
58196;SDS011;43999;51.660;5.616;2023-03-31T05:43:51;8.88;;;4.35;;
58196;SDS011;43999;51.660;5.616;2023-03-31T05:46:19;10.18;;;3.72;;
58196;SDS011;43999;51.660;5.616;2023-03-31T05:48:47;8.35;;;3.80;;
58196;SDS011;43999;51.660;5.616;2023-03-31T05:51:15;7.18;;;3.00;;
58196;SDS011;43999;51.660;5.616;2023-03-31T05:53:43;7.95;;;3.58;;
58196;SDS011;43999;51.660;5.616;2023-03-31T05:56:13;6.47;;;3.45;;
58196;SDS011;43999;51.660;5.616;2023-03-31T05:58:44;9.00;;;3.22;;
58196;SDS011;43999;51.660;5.616;2023-03-31T06:01:13;8.07;;;3.35;;
58196;SDS011;43999;51.660;5.616;2023-03-31T06:03:49;11.20;;;4.00;;
58196;SDS011;43999;51.660;5.616;2023-03-31T06:06:18;8.52;;;3.15;;
58196;SDS011;43999;51.660;5.616;2023-03-31T06:08:48;9.30;;;3.72;;
58196;SDS011;43999;51.660;5.616;2023-03-31T06:11:16;9.25;;;3.88;;
58196;SDS011;43999;51.660;5.616;2023-03-31T06:13:47;6.30;;;2.83;;
58196;SDS011;43999;51.660;5.616;2023-03-31T06:16:16;8.77;;;3.65;;
58196;SDS011;43999;51.660;5.616;2023-03-31T06:18:44;7.40;;;2.80;;
58196;SDS011;43999;51.660;5.616;2023-03-31T06:21:20;9.90;;;3.72;;
58196;SDS011;43999;51.660;5.616;2023-03-31T06:23:50;6.00;;;2.80;;
58196;SDS011;43999;51.660;5.616;2023-03-31T06:26:22;8.48;;;3.22;;
58196;SDS011;43999;51.660;5.616;2023-03-31T06:28:50;8.70;;;2.85;;
58196;SDS011;43999;51.660;5.616;2023-03-31T06:31:19;5.80;;;2.92;;
58196;SDS011;43999;51.660;5.616;2023-03-31T06:33:50;10.23;;;3.45;;
58196;SDS011;43999;51.660;5.616;2023-03-31T06:36:19;8.63;;;3.67;;
58196;SDS011;43999;51.660;5.616;2023-03-31T06:38:52;8.60;;;3.97;;
58196;SDS011;43999;51.660;5.616;2023-03-31T06:41:19;5.47;;;3.10;;
58196;SDS011;43999;51.660;5.616;2023-03-31T06:43:49;9.23;;;4.15;;
58196;SDS011;43999;51.660;5.616;2023-03-31T06:46:19;9.43;;;4.57;;
58196;SDS011;43999;51.660;5.616;2023-03-31T06:48:46;9.13;;;3.88;;
58196;SDS011;43999;51.660;5.616;2023-03-31T06:51:14;12.63;;;4.38;;
58196;SDS011;43999;51.660;5.616;2023-03-31T06:53:42;9.20;;;3.33;;
58196;SDS011;43999;51.660;5.616;2023-03-31T06:56:10;8.75;;;3.25;;
58196;SDS011;43999;51.660;5.616;2023-03-31T06:58:38;8.55;;;4.18;;
58196;SDS011;43999;51.660;5.616;2023-03-31T07:01:05;7.47;;;3.90;;
58196;SDS011;43999;51.660;5.616;2023-03-31T07:03:34;9.50;;;3.08;;
58196;SDS011;43999;51.660;5.616;2023-03-31T07:06:02;8.13;;;5.03;;
58196;SDS011;43999;51.660;5.616;2023-03-31T07:08:30;6.68;;;3.60;;
58196;SDS011;43999;51.660;5.616;2023-03-31T07:10:58;9.52;;;4.10;;
58196;SDS011;43999;51.660;5.616;2023-03-31T07:13:26;5.25;;;3.40;;
58196;SDS011;43999;51.660;5.616;2023-03-31T07:15:54;7.35;;;4.20;;
58196;SDS011;43999;51.660;5.616;2023-03-31T07:18:23;7.82;;;3.83;;
58196;SDS011;43999;51.660;5.616;2023-03-31T07:23:32;6.32;;;3.17;;
58196;SDS011;43999;51.660;5.616;2023-03-31T07:26:01;8.93;;;3.10;;
58196;SDS011;43999;51.660;5.616;2023-03-31T07:28:37;6.83;;;4.47;;
58196;SDS011;43999;51.660;5.616;2023-03-31T07:31:14;7.13;;;4.50;;
58196;SDS011;43999;51.660;5.616;2023-03-31T07:33:41;10.23;;;4.47;;
58196;SDS011;43999;51.660;5.616;2023-03-31T07:36:09;8.25;;;4.75;;
58196;SDS011;43999;51.660;5.616;2023-03-31T07:38:43;10.00;;;5.90;;
58196;SDS011;43999;51.660;5.616;2023-03-31T07:41:16;19.48;;;5.55;;
58196;SDS011;43999;51.660;5.616;2023-03-31T07:43:47;11.75;;;5.57;;
58196;SDS011;43999;51.660;5.616;2023-03-31T07:46:19;13.77;;;6.50;;
58196;SDS011;43999;51.660;5.616;2023-03-31T07:48:52;12.23;;;6.05;;
58196;SDS011;43999;51.660;5.616;2023-03-31T07:51:25;12.10;;;6.25;;
58196;SDS011;43999;51.660;5.616;2023-03-31T07:53:56;10.15;;;5.55;;
58196;SDS011;43999;51.660;5.616;2023-03-31T07:56:25;8.07;;;5.15;;
58196;SDS011;43999;51.660;5.616;2023-03-31T07:58:53;13.20;;;5.15;;
58196;SDS011;43999;51.660;5.616;2023-03-31T08:01:23;8.23;;;4.35;;
58196;SDS011;43999;51.660;5.616;2023-03-31T08:03:54;13.88;;;5.63;;
58196;SDS011;43999;51.660;5.616;2023-03-31T08:06:23;13.80;;;5.88;;
58196;SDS011;43999;51.660;5.616;2023-03-31T08:08:54;11.70;;;5.22;;
58196;SDS011;43999;51.660;5.616;2023-03-31T08:11:24;5.85;;;3.63;;
58196;SDS011;43999;51.660;5.616;2023-03-31T08:13:52;10.70;;;4.53;;
58196;SDS011;43999;51.660;5.616;2023-03-31T08:16:20;10.25;;;5.05;;
58196;SDS011;43999;51.660;5.616;2023-03-31T08:18:49;11.85;;;4.88;;
58196;SDS011;43999;51.660;5.616;2023-03-31T08:21:16;7.18;;;4.93;;
58196;SDS011;43999;51.660;5.616;2023-03-31T08:23:44;11.20;;;5.85;;
58196;SDS011;43999;51.660;5.616;2023-03-31T08:26:13;10.80;;;4.82;;
58196;SDS011;43999;51.660;5.616;2023-03-31T08:28:47;14.38;;;6.47;;
58196;SDS011;43999;51.660;5.616;2023-03-31T08:31:18;13.77;;;5.93;;
58196;SDS011;43999;51.660;5.616;2023-03-31T08:33:52;13.90;;;6.18;;
58196;SDS011;43999;51.660;5.616;2023-03-31T08:36:19;15.82;;;6.82;;
58196;SDS011;43999;51.660;5.616;2023-03-31T08:38:47;19.17;;;7.85;;
58196;SDS011;43999;51.660;5.616;2023-03-31T08:47:32;14.15;;;6.30;;
58196;SDS011;43999;51.660;5.616;2023-03-31T08:50:09;13.85;;;7.03;;
58196;SDS011;43999;51.660;5.616;2023-03-31T08:53:10;13.40;;;7.55;;
58196;SDS011;43999;51.660;5.616;2023-03-31T08:55:56;20.42;;;7.95;;
58196;SDS011;43999;51.660;5.616;2023-03-31T09:08:05;19.30;;;6.82;;
58196;SDS011;43999;51.660;5.616;2023-03-31T09:11:17;16.20;;;6.53;;
58196;SDS011;43999;51.660;5.616;2023-03-31T09:17:24;16.35;;;6.95;;
58196;SDS011;43999;51.660;5.616;2023-03-31T09:23:21;12.90;;;5.55;;
58196;SDS011;43999;51.660;5.616;2023-03-31T09:26:04;16.02;;;5.80;;
58196;SDS011;43999;51.660;5.616;2023-03-31T09:28:46;17.05;;;6.88;;
58196;SDS011;43999;51.660;5.616;2023-03-31T09:31:18;17.88;;;5.72;;
58196;SDS011;43999;51.660;5.616;2023-03-31T09:33:49;13.48;;;6.43;;
58196;SDS011;43999;51.660;5.616;2023-03-31T09:36:25;17.80;;;7.05;;
58196;SDS011;43999;51.660;5.616;2023-03-31T09:38:54;16.25;;;6.57;;
58196;SDS011;43999;51.660;5.616;2023-03-31T09:41:22;16.13;;;5.93;;
58196;SDS011;43999;51.660;5.616;2023-03-31T09:43:51;13.50;;;5.90;;
58196;SDS011;43999;51.660;5.616;2023-03-31T09:49:34;16.30;;;6.85;;
58196;SDS011;43999;51.660;5.616;2023-03-31T09:57:34;10.40;;;5.32;;
58196;SDS011;43999;51.660;5.616;2023-03-31T10:11:09;13.25;;;5.30;;
58196;SDS011;43999;51.660;5.616;2023-03-31T10:16:22;14.23;;;5.53;;
58196;SDS011;43999;51.660;5.616;2023-03-31T10:19:29;14.23;;;6.70;;
58196;SDS011;43999;51.660;5.616;2023-03-31T10:22:12;12.82;;;5.72;;
58196;SDS011;43999;51.660;5.616;2023-03-31T10:24:56;12.60;;;5.32;;
58196;SDS011;43999;51.660;5.616;2023-03-31T10:27:51;11.57;;;5.07;;
58196;SDS011;43999;51.660;5.616;2023-03-31T10:30:25;16.80;;;5.40;;
58196;SDS011;43999;51.660;5.616;2023-03-31T10:33:04;10.25;;;4.38;;
58196;SDS011;43999;51.660;5.616;2023-03-31T10:35:53;9.85;;;4.60;;
58196;SDS011;43999;51.660;5.616;2023-03-31T10:38:43;10.50;;;4.22;;
58196;SDS011;43999;51.660;5.616;2023-03-31T10:41:28;13.25;;;5.85;;
58196;SDS011;43999;51.660;5.616;2023-03-31T10:43:57;12.65;;;4.70;;
58196;SDS011;43999;51.660;5.616;2023-03-31T10:51:57;15.48;;;5.30;;
58196;SDS011;43999;51.660;5.616;2023-03-31T10:55:24;12.45;;;4.40;;
58196;SDS011;43999;51.660;5.616;2023-03-31T11:01:00;10.65;;;4.20;;
58196;SDS011;43999;51.660;5.616;2023-03-31T11:08:13;12.27;;;4.05;;
58196;SDS011;43999;51.660;5.616;2023-03-31T11:15:11;12.25;;;4.38;;
58196;SDS011;43999;51.660;5.616;2023-03-31T11:21:26;11.95;;;5.13;;
58196;SDS011;43999;51.660;5.616;2023-03-31T11:24:40;13.30;;;4.55;;
58196;SDS011;43999;51.660;5.616;2023-03-31T11:31:47;12.68;;;5.38;;
58196;SDS011;43999;51.660;5.616;2023-03-31T11:34:44;8.10;;;5.05;;
58196;SDS011;43999;51.660;5.616;2023-03-31T11:41:14;14.98;;;5.03;;
58196;SDS011;43999;51.660;5.616;2023-03-31T11:44:11;12.70;;;4.93;;
58196;SDS011;43999;51.660;5.616;2023-03-31T11:46:49;12.43;;;5.45;;
58196;SDS011;43999;51.660;5.616;2023-03-31T11:49:40;10.50;;;4.63;;
58196;SDS011;43999;51.660;5.616;2023-03-31T11:52:43;12.57;;;6.15;;
58196;SDS011;43999;51.660;5.616;2023-03-31T11:55:36;14.45;;;5.18;;
58196;SDS011;43999;51.660;5.616;2023-03-31T11:58:19;12.13;;;5.78;;
58196;SDS011;43999;51.660;5.616;2023-03-31T12:05:25;10.25;;;4.85;;
58196;SDS011;43999;51.660;5.616;2023-03-31T12:08:04;10.25;;;4.18;;
58196;SDS011;43999;51.660;5.616;2023-03-31T12:21:51;9.77;;;4.53;;
58196;SDS011;43999;51.660;5.616;2023-03-31T12:24:45;8.80;;;3.47;;
58196;SDS011;43999;51.660;5.616;2023-03-31T12:27:22;10.43;;;4.35;;
58196;SDS011;43999;51.660;5.616;2023-03-31T12:30:31;10.57;;;4.38;;
58196;SDS011;43999;51.660;5.616;2023-03-31T12:33:56;5.90;;;3.33;;
58196;SDS011;43999;51.660;5.616;2023-03-31T13:09:04;7.93;;;3.80;;
58196;SDS011;43999;51.660;5.616;2023-03-31T13:12:14;12.05;;;4.43;;
58196;SDS011;43999;51.660;5.616;2023-03-31T13:15:14;10.00;;;3.58;;
58196;SDS011;43999;51.660;5.616;2023-03-31T13:17:52;10.68;;;4.15;;
58196;SDS011;43999;51.660;5.616;2023-03-31T13:20:38;11.00;;;4.70;;
58196;SDS011;43999;51.660;5.616;2023-03-31T13:25:49;12.38;;;4.50;;
58196;SDS011;43999;51.660;5.616;2023-03-31T14:00:29;8.25;;;3.33;;
58196;SDS011;43999;51.660;5.616;2023-03-31T14:06:37;5.50;;;2.67;;
58196;SDS011;43999;51.660;5.616;2023-03-31T14:09:26;6.28;;;2.85;;
58196;SDS011;43999;51.660;5.616;2023-03-31T14:12:00;8.52;;;2.70;;
58196;SDS011;43999;51.660;5.616;2023-03-31T14:14:50;6.20;;;2.58;;
58196;SDS011;43999;51.660;5.616;2023-03-31T14:17:25;9.85;;;3.00;;
58196;SDS011;43999;51.660;5.616;2023-03-31T14:23:12;5.63;;;3.47;;
58196;SDS011;43999;51.660;5.616;2023-03-31T14:29:27;6.00;;;2.67;;
58196;SDS011;43999;51.660;5.616;2023-03-31T14:35:25;7.72;;;3.38;;
58196;SDS011;43999;51.660;5.616;2023-03-31T14:38:08;7.95;;;3.25;;
58196;SDS011;43999;51.660;5.616;2023-03-31T14:40:45;7.40;;;3.38;;
58196;SDS011;43999;51.660;5.616;2023-03-31T14:43:42;7.90;;;3.67;;
58196;SDS011;43999;51.660;5.616;2023-03-31T14:46:18;7.70;;;2.75;;
58196;SDS011;43999;51.660;5.616;2023-03-31T14:48:50;12.60;;;3.50;;
58196;SDS011;43999;51.660;5.616;2023-03-31T14:51:24;6.72;;;2.20;;
58196;SDS011;43999;51.660;5.616;2023-03-31T14:53:58;6.55;;;2.88;;
58196;SDS011;43999;51.660;5.616;2023-03-31T14:56:29;7.45;;;2.38;;
58196;SDS011;43999;51.660;5.616;2023-03-31T14:59:06;7.00;;;2.95;;
58196;SDS011;43999;51.660;5.616;2023-03-31T15:01:36;5.47;;;2.55;;
58196;SDS011;43999;51.660;5.616;2023-03-31T15:04:12;4.97;;;2.08;;
58196;SDS011;43999;51.660;5.616;2023-03-31T15:06:49;6.63;;;2.65;;
58196;SDS011;43999;51.660;5.616;2023-03-31T15:09:22;5.55;;;1.80;;
58196;SDS011;43999;51.660;5.616;2023-03-31T15:12:02;3.63;;;2.00;;
58196;SDS011;43999;51.660;5.616;2023-03-31T15:14:39;4.10;;;1.80;;
58196;SDS011;43999;51.660;5.616;2023-03-31T15:17:18;4.93;;;1.48;;
58196;SDS011;43999;51.660;5.616;2023-03-31T15:19:56;4.00;;;1.80;;
58196;SDS011;43999;51.660;5.616;2023-03-31T15:22:27;5.75;;;1.92;;
58196;SDS011;43999;51.660;5.616;2023-03-31T15:24:56;2.40;;;1.42;;
58196;SDS011;43999;51.660;5.616;2023-03-31T15:27:34;3.15;;;1.20;;
58196;SDS011;43999;51.660;5.616;2023-03-31T15:30:15;2.83;;;1.65;;
58196;SDS011;43999;51.660;5.616;2023-03-31T15:32:49;3.70;;;1.30;;
58196;SDS011;43999;51.660;5.616;2023-03-31T15:35:23;2.70;;;1.38;;
58196;SDS011;43999;51.660;5.616;2023-03-31T15:37:59;2.17;;;1.52;;
58196;SDS011;43999;51.660;5.616;2023-03-31T15:40:42;3.10;;;1.80;;
58196;SDS011;43999;51.660;5.616;2023-03-31T15:43:16;2.10;;;1.50;;
58196;SDS011;43999;51.660;5.616;2023-03-31T15:45:58;3.05;;;1.50;;
58196;SDS011;43999;51.660;5.616;2023-03-31T15:48:32;1.98;;;1.20;;
58196;SDS011;43999;51.660;5.616;2023-03-31T15:51:23;2.95;;;1.67;;
58196;SDS011;43999;51.660;5.616;2023-03-31T15:54:32;3.30;;;2.20;;
58196;SDS011;43999;51.660;5.616;2023-03-31T15:57:17;4.53;;;2.03;;
58196;SDS011;43999;51.660;5.616;2023-03-31T15:59:48;4.55;;;1.90;;
58196;SDS011;43999;51.660;5.616;2023-03-31T16:02:24;9.10;;;2.65;;
58196;SDS011;43999;51.660;5.616;2023-03-31T16:08:21;3.55;;;1.40;;
58196;SDS011;43999;51.660;5.616;2023-03-31T16:11:14;4.95;;;2.20;;
58196;SDS011;43999;51.660;5.616;2023-03-31T16:14:25;4.05;;;1.38;;
58196;SDS011;43999;51.660;5.616;2023-03-31T16:17:08;3.42;;;1.70;;
58196;SDS011;43999;51.660;5.616;2023-03-31T16:20:09;3.92;;;1.65;;
58196;SDS011;43999;51.660;5.616;2023-03-31T16:22:46;3.90;;;1.88;;
58196;SDS011;43999;51.660;5.616;2023-03-31T16:25:25;2.85;;;1.60;;
58196;SDS011;43999;51.660;5.616;2023-03-31T16:27:57;5.03;;;2.30;;
58196;SDS011;43999;51.660;5.616;2023-03-31T16:30:35;3.80;;;2.20;;
58196;SDS011;43999;51.660;5.616;2023-03-31T16:33:14;5.75;;;3.17;;
58196;SDS011;43999;51.660;5.616;2023-03-31T16:35:49;4.07;;;1.88;;
58196;SDS011;43999;51.660;5.616;2023-03-31T16:38:22;2.40;;;1.40;;
58196;SDS011;43999;51.660;5.616;2023-03-31T16:40:54;3.45;;;2.00;;
58196;SDS011;43999;51.660;5.616;2023-03-31T16:43:27;4.38;;;2.53;;
58196;SDS011;43999;51.660;5.616;2023-03-31T16:45:57;3.30;;;1.88;;
58196;SDS011;43999;51.660;5.616;2023-03-31T16:48:31;4.03;;;2.42;;
58196;SDS011;43999;51.660;5.616;2023-03-31T16:51:00;3.85;;;1.70;;
58196;SDS011;43999;51.660;5.616;2023-03-31T16:53:31;2.50;;;1.77;;
58196;SDS011;43999;51.660;5.616;2023-03-31T16:56:02;1.90;;;1.17;;
58196;SDS011;43999;51.660;5.616;2023-03-31T16:58:35;4.28;;;2.85;;
58196;SDS011;43999;51.660;5.616;2023-03-31T17:01:07;4.82;;;2.45;;
58196;SDS011;43999;51.660;5.616;2023-03-31T17:03:35;3.75;;;1.40;;
58196;SDS011;43999;51.660;5.616;2023-03-31T17:06:10;2.60;;;1.40;;
58196;SDS011;43999;51.660;5.616;2023-03-31T17:08:41;4.30;;;1.70;;
58196;SDS011;43999;51.660;5.616;2023-03-31T17:11:10;5.30;;;4.07;;
58196;SDS011;43999;51.660;5.616;2023-03-31T17:13:40;3.70;;;1.98;;
58196;SDS011;43999;51.660;5.616;2023-03-31T17:16:10;3.97;;;2.22;;
58196;SDS011;43999;51.660;5.616;2023-03-31T17:18:54;8.23;;;2.22;;
58196;SDS011;43999;51.660;5.616;2023-03-31T17:21:23;5.82;;;3.42;;
58196;SDS011;43999;51.660;5.616;2023-03-31T17:23:51;8.50;;;4.45;;
58196;SDS011;43999;51.660;5.616;2023-03-31T17:26:19;11.63;;;4.38;;
58196;SDS011;43999;51.660;5.616;2023-03-31T17:28:48;7.82;;;4.50;;
58196;SDS011;43999;51.660;5.616;2023-03-31T17:31:18;6.55;;;3.38;;
58196;SDS011;43999;51.660;5.616;2023-03-31T17:33:47;4.75;;;2.42;;
58196;SDS011;43999;51.660;5.616;2023-03-31T17:36:15;4.10;;;1.80;;
58196;SDS011;43999;51.660;5.616;2023-03-31T17:38:44;8.65;;;4.32;;
58196;SDS011;43999;51.660;5.616;2023-03-31T17:41:12;9.38;;;5.85;;
58196;SDS011;43999;51.660;5.616;2023-03-31T17:43:44;11.82;;;6.75;;
58196;SDS011;43999;51.660;5.616;2023-03-31T17:46:16;5.03;;;2.53;;
58196;SDS011;43999;51.660;5.616;2023-03-31T17:48:44;5.35;;;2.63;;
58196;SDS011;43999;51.660;5.616;2023-03-31T17:51:13;6.28;;;2.90;;
58196;SDS011;43999;51.660;5.616;2023-03-31T17:53:44;4.53;;;2.28;;
58196;SDS011;43999;51.660;5.616;2023-03-31T17:56:17;3.85;;;2.58;;
58196;SDS011;43999;51.660;5.616;2023-03-31T17:58:46;7.07;;;2.50;;
58196;SDS011;43999;51.660;5.616;2023-03-31T18:01:14;4.07;;;2.20;;
58196;SDS011;43999;51.660;5.616;2023-03-31T18:03:44;3.92;;;2.42;;
58196;SDS011;43999;51.660;5.616;2023-03-31T18:06:14;5.53;;;2.20;;
58196;SDS011;43999;51.660;5.616;2023-03-31T18:08:43;2.88;;;2.00;;
58196;SDS011;43999;51.660;5.616;2023-03-31T18:11:11;3.55;;;1.90;;
58196;SDS011;43999;51.660;5.616;2023-03-31T18:13:39;5.38;;;2.33;;
58196;SDS011;43999;51.660;5.616;2023-03-31T18:16:08;4.50;;;2.40;;
58196;SDS011;43999;51.660;5.616;2023-03-31T18:18:39;4.60;;;2.65;;
58196;SDS011;43999;51.660;5.616;2023-03-31T18:21:08;4.55;;;2.17;;
58196;SDS011;43999;51.660;5.616;2023-03-31T18:23:41;8.70;;;4.82;;
58196;SDS011;43999;51.660;5.616;2023-03-31T18:26:09;9.70;;;4.55;;
58196;SDS011;43999;51.660;5.616;2023-03-31T18:28:38;8.30;;;3.38;;
58196;SDS011;43999;51.660;5.616;2023-03-31T18:31:09;7.13;;;3.58;;
58196;SDS011;43999;51.660;5.616;2023-03-31T18:33:38;10.80;;;6.82;;
58196;SDS011;43999;51.660;5.616;2023-03-31T18:36:08;11.70;;;6.85;;
58196;SDS011;43999;51.660;5.616;2023-03-31T18:38:45;12.43;;;5.18;;
58196;SDS011;43999;51.660;5.616;2023-03-31T18:41:15;9.10;;;4.88;;
58196;SDS011;43999;51.660;5.616;2023-03-31T18:43:46;6.03;;;3.38;;
58196;SDS011;43999;51.660;5.616;2023-03-31T18:46:17;8.68;;;4.25;;
58196;SDS011;43999;51.660;5.616;2023-03-31T18:48:45;8.35;;;4.40;;
58196;SDS011;43999;51.660;5.616;2023-03-31T18:51:13;6.55;;;4.32;;
58196;SDS011;43999;51.660;5.616;2023-03-31T18:53:40;8.57;;;4.45;;
58196;SDS011;43999;51.660;5.616;2023-03-31T18:56:08;5.68;;;3.80;;
58196;SDS011;43999;51.660;5.616;2023-03-31T18:58:35;4.35;;;2.80;;
58196;SDS011;43999;51.660;5.616;2023-03-31T19:01:03;3.30;;;2.53;;
58196;SDS011;43999;51.660;5.616;2023-03-31T19:03:32;6.28;;;3.20;;
58196;SDS011;43999;51.660;5.616;2023-03-31T19:06:01;7.47;;;3.97;;
58196;SDS011;43999;51.660;5.616;2023-03-31T19:08:35;5.88;;;2.53;;
58196;SDS011;43999;51.660;5.616;2023-03-31T19:11:08;4.55;;;3.33;;